Salem, Maryland
Current Conditions -  °F | °C
As of 11:06 AM on Tuesday 21 Oct 2014 (Local Time) from KCGE Reporting Station
Clear Clear  
Wind Chill: 64°   Ceiling: Unl
Heat Index: 64°   Visibility: 10mi
Dew Point: 50°   Wind: 0mph
Humidity: 59%   Direction: NA
Pressure: 29.87"   Gusts: NA
Location:  38.4254°N, 75.9037°W
Report Text: KCGE 211506Z AUTO 00000KT 10SM CLR 18/10 A2987 RMK AO1
Loading
Personal Weather Stations






























Interactive Weather Map
Tropical Storm Tracking
New forecast layout! Learn more

10-Day Weather Forecast

Advertisements
Track Severe Weather on mobile